Aérodrome :
LOGIN :

S'inscrire | Disclaimer

   EN    FR    IT 

 










Légende :    VFR   VFR Marginal   IFR   IFR Intensif   IFR Très Intensif
Visi : 
Plafond : 
>= 8 km
>= 3000ft
5 à 8 km
1000 à 3000 ft
1500m à 5 km
500 à 1000 ft
800 à 1500m
200 à 500 ft
< 800m
< 200 ft
Symboles :   Orages  Brouillard  Fortes neiges  Fortes précipitations  Vent > 20 kt
SIGMETs :   Divers  Orages  Givrage  Turbulence  Onde Orograph.  Cendres Volcan.







- Altitude de l'aérodrome : 1036 ft
- Code IATA : ERF


EDDE - Erfurt

DERNIER METAR :
  • 251420Z VRB03KT 9999 FEW040 SCT090 21/15 Q1019 NOSIG

METARs EXPIRÉS :
  • 251350Z VRB02KT 9999 VCSH FEW030 FEW040CB SCT085 20/16 Q1020 NOSIG
  • 251320Z VRB02KT 9999 VCSH FEW030 FEW040CB SCT080 19/17 Q1020 RERA NOSIG
  • 251250Z 03004KT 9999 SHRA SCT027 SCT036CB 18/16 Q1020 BECMG NSW
  • 251220Z 06006KT 030V110 9999 VCSH SCT027 FEW036CB SCT090 21/16 Q1020 NOSIG
  • 251150Z 04005KT 340V070 9999 FEW025 FEW040CB BKN090 20/16 Q1020 NOSIG

TAF TAF EDDE
Valide du 25 à 12h jusqu'au 26 à 12h UTC


251100Z 2512/2612 06008KT 9999 SCT030
PROB30
TEMPO 2512/2516 3000 TSRA BKN012 BKN020CB
BECMG 2518/2520 VRB03KT
TEMPO 2600/2606 3000 BR
PROB30
TEMPO 2602/2605 0300 FG BKN001
Pas de NOTAMs connus pour ce terrain.



MET'MAP, la Météo Aéronautique d'un coup d'oeil ! - Copyright ORBIFLY Décembre 2007 - Disclaimer

ORBIFLY MET'MAP TEAM :

Programmation & Développement : Alexandra Zaïnal
Conception & Développement : Baudouin d'Aumeries
Co-Programmation & Développement : Marc-Olivier Méhu
Soutien technique & logistique : Manuel Goepfert

Contact : metmap@orbifly.com




SOURCES & CREDITS :

   NOAA